Overview Statistics Trail Chart Weather Telemetry Raw packets
 

This is the latest recevied weather packets stored in our database for station/object SV9TNF-51. If no packets are shown the sender has not sent any weather packets the latest 10 day(s).

<< 70 71 72 73 74 75 76 >>
Time Temp. Humidity Pressure Rain* Wind** Luminosity Snow
1788172966 35° C 43% 1012.5 hPa 0 mm 1.79 m/s, 92° - -
1788172666 34.44° C 44% 1012.5 hPa 0 mm 1.79 m/s, 75° - -
1788172366 34.44° C 43% 1012.2 hPa 0 mm 5.81 m/s, 359° - -
1788172065 35° C 44% 1012.2 hPa 0 mm 2.24 m/s, 129° - -
1788171765 35.56° C 43% 1012.2 hPa 0 mm 2.68 m/s, 275° - -
1788171465 34.44° C 43% 1012.2 hPa 0 mm 2.68 m/s, 159° - -
1788171166 33.33° C 47% 1012.2 hPa 0 mm 10.28 m/s, 186° - -
1788170865 34.44° C 44% 1012.5 hPa 0 mm 2.24 m/s, 129° - -
1788170565 34.44° C 43% 1012.5 hPa 0 mm 1.79 m/s, 112° - -
1788170265 33.33° C 43% 1012.5 hPa 0 mm 8.05 m/s, 356° - -
1788169965 32.78° C 44% 1012.5 hPa 0 mm 10.28 m/s, 321° - -
1788169665 33.33° C 45% 1013.2 hPa 0 mm 3.58 m/s, 113° - -
1788169365 33.33° C 45% 1013.2 hPa 0 mm 7.15 m/s, 356° - -
1788169064 33.89° C 46% 1013.2 hPa 0 mm 2.68 m/s, 119° - -
1788168764 32.78° C 46% 1013.2 hPa 0 mm 7.6 m/s, 332° - -
1788168464 32.78° C 48% 1013.2 hPa 0 mm 5.81 m/s, 146° - -
1788168164 32.22° C 49% 1013.6 hPa 0 mm 10.28 m/s, 34° - -
1788167864 32.22° C 50% 1013.6 hPa 0 mm 5.36 m/s, 97° - -
1788167564 31.67° C 50% 1013.6 hPa 0 mm 9.39 m/s, 332° - -
1788167264 32.22° C 51% 1013.6 hPa 0 mm 1.79 m/s, 131° - -
1788166964 31.67° C 52% 1013.6 hPa 0 mm 7.6 m/s, 111° - -
1788166664 31.67° C 52% 1013.6 hPa 0 mm 11.62 m/s, 308° - -
1788166364 32.78° C 49% 1013.6 hPa 0 mm 5.36 m/s, 339° - -
1788166063 32.78° C 49% 1013.9 hPa 0 mm 1.79 m/s, 116° - -
1788165763 32.22° C 51% 1013.9 hPa 0 mm 7.15 m/s, 343° - -

* Rain latest hour (hover to see other rain measurements)
** Current wind speed in m/s (hover to see current wind gust speed)